sensor_id;sensor_type;location;lat;lon;timestamp;temperature;humidity
30473;DHT22;17263;48.160;11.452;2023-03-01T00:01:31;1.50;99.90
30473;DHT22;17263;48.160;11.452;2023-03-01T00:03:57;1.50;99.90
30473;DHT22;17263;48.160;11.452;2023-03-01T00:06:24;1.50;99.90
30473;DHT22;17263;48.160;11.452;2023-03-01T00:08:51;1.50;99.90
30473;DHT22;17263;48.160;11.452;2023-03-01T00:11:19;1.50;99.90
30473;DHT22;17263;48.160;11.452;2023-03-01T00:13:46;1.60;99.90
30473;DHT22;17263;48.160;11.452;2023-03-01T00:16:19;1.50;99.90
30473;DHT22;17263;48.160;11.452;2023-03-01T00:18:46;1.50;99.90
30473;DHT22;17263;48.160;11.452;2023-03-01T00:21:12;1.50;99.90
30473;DHT22;17263;48.160;11.452;2023-03-01T00:23:38;1.40;99.90
30473;DHT22;17263;48.160;11.452;2023-03-01T00:26:10;1.50;99.90
30473;DHT22;17263;48.160;11.452;2023-03-01T00:28:37;1.50;99.90
30473;DHT22;17263;48.160;11.452;2023-03-01T00:31:08;1.50;99.90
30473;DHT22;17263;48.160;11.452;2023-03-01T00:33:34;1.50;99.90
30473;DHT22;17263;48.160;11.452;2023-03-01T00:36:01;1.50;99.90
30473;DHT22;17263;48.160;11.452;2023-03-01T00:38:27;1.50;99.90
30473;DHT22;17263;48.160;11.452;2023-03-01T00:40:54;1.50;99.90
30473;DHT22;17263;48.160;11.452;2023-03-01T00:43:20;1.50;99.90
30473;DHT22;17263;48.160;11.452;2023-03-01T00:45:46;1.50;99.90
30473;DHT22;17263;48.160;11.452;2023-03-01T00:48:12;1.40;99.90
30473;DHT22;17263;48.160;11.452;2023-03-01T00:50:38;1.40;99.90
30473;DHT22;17263;48.160;11.452;2023-03-01T00:53:04;1.50;99.90
30473;DHT22;17263;48.160;11.452;2023-03-01T00:55:30;1.40;99.90
30473;DHT22;17263;48.160;11.452;2023-03-01T00:57:56;1.50;99.90
30473;DHT22;17263;48.160;11.452;2023-03-01T01:00:23;1.40;99.90
30473;DHT22;17263;48.160;11.452;2023-03-01T01:02:49;1.50;99.90
30473;DHT22;17263;48.160;11.452;2023-03-01T01:05:15;1.50;99.90
30473;DHT22;17263;48.160;11.452;2023-03-01T01:07:47;1.40;99.90
30473;DHT22;17263;48.160;11.452;2023-03-01T01:10:14;1.40;99.90
30473;DHT22;17263;48.160;11.452;2023-03-01T01:12:44;1.40;99.90
30473;DHT22;17263;48.160;11.452;2023-03-01T01:15:10;1.40;99.90
30473;DHT22;17263;48.160;11.452;2023-03-01T01:17:40;1.40;99.90
30473;DHT22;17263;48.160;11.452;2023-03-01T01:20:06;1.40;99.90
30473;DHT22;17263;48.160;11.452;2023-03-01T01:22:33;1.30;99.90
30473;DHT22;17263;48.160;11.452;2023-03-01T01:24:59;1.40;99.90
30473;DHT22;17263;48.160;11.452;2023-03-01T01:27:25;1.30;99.90
30473;DHT22;17263;48.160;11.452;2023-03-01T01:29:53;1.40;99.90
30473;DHT22;17263;48.160;11.452;2023-03-01T01:32:19;1.40;99.90
30473;DHT22;17263;48.160;11.452;2023-03-01T01:34:45;1.30;99.90
30473;DHT22;17263;48.160;11.452;2023-03-01T01:37:12;1.40;99.90
30473;DHT22;17263;48.160;11.452;2023-03-01T01:39:38;1.30;99.90
30473;DHT22;17263;48.160;11.452;2023-03-01T01:42:04;1.30;99.90
30473;DHT22;17263;48.160;11.452;2023-03-01T01:44:30;1.30;99.90
30473;DHT22;17263;48.160;11.452;2023-03-01T01:47:00;1.30;99.90
30473;DHT22;17263;48.160;11.452;2023-03-01T01:49:41;1.30;99.90
30473;DHT22;17263;48.160;11.452;2023-03-01T01:52:24;1.30;99.90
30473;DHT22;17263;48.160;11.452;2023-03-01T01:55:04;1.30;99.90
30473;DHT22;17263;48.160;11.452;2023-03-01T02:00:18;1.30;99.90
30473;DHT22;17263;48.160;11.452;2023-03-01T02:02:47;1.30;99.90
30473;DHT22;17263;48.160;11.452;2023-03-01T02:05:26;1.30;99.90
30473;DHT22;17263;48.160;11.452;2023-03-01T02:07:56;1.30;99.90
30473;DHT22;17263;48.160;11.452;2023-03-01T02:10:23;1.30;99.90
30473;DHT22;17263;48.160;11.452;2023-03-01T02:12:50;1.30;99.90
30473;DHT22;17263;48.160;11.452;2023-03-01T02:15:16;1.20;99.90
30473;DHT22;17263;48.160;11.452;2023-03-01T02:17:42;1.30;99.90
30473;DHT22;17263;48.160;11.452;2023-03-01T02:23:00;1.20;99.90
30473;DHT22;17263;48.160;11.452;2023-03-01T02:30:43;1.30;99.90
30473;DHT22;17263;48.160;11.452;2023-03-01T02:33:29;1.30;99.90
30473;DHT22;17263;48.160;11.452;2023-03-01T02:36:12;1.30;99.90
30473;DHT22;17263;48.160;11.452;2023-03-01T02:38:43;1.30;99.90
30473;DHT22;17263;48.160;11.452;2023-03-01T02:41:12;1.30;99.90
30473;DHT22;17263;48.160;11.452;2023-03-01T02:43:40;1.30;99.90
30473;DHT22;17263;48.160;11.452;2023-03-01T02:46:18;1.20;99.90
30473;DHT22;17263;48.160;11.452;2023-03-01T02:48:47;1.20;99.90
30473;DHT22;17263;48.160;11.452;2023-03-01T02:51:48;1.10;99.90
30473;DHT22;17263;48.160;11.452;2023-03-01T02:57:04;1.10;99.90
30473;DHT22;17263;48.160;11.452;2023-03-01T02:59:33;1.10;99.90
30473;DHT22;17263;48.160;11.452;2023-03-01T03:02:18;1.10;99.90
30473;DHT22;17263;48.160;11.452;2023-03-01T03:04:46;1.10;99.90
30473;DHT22;17263;48.160;11.452;2023-03-01T03:07:12;1.10;99.90
30473;DHT22;17263;48.160;11.452;2023-03-01T03:09:38;1.10;99.90
30473;DHT22;17263;48.160;11.452;2023-03-01T03:12:04;1.10;99.90
30473;DHT22;17263;48.160;11.452;2023-03-01T03:14:30;1.10;99.90
30473;DHT22;17263;48.160;11.452;2023-03-01T03:17:00;1.10;99.90
30473;DHT22;17263;48.160;11.452;2023-03-01T03:19:26;1.10;99.90
30473;DHT22;17263;48.160;11.452;2023-03-01T03:21:52;1.10;99.90
30473;DHT22;17263;48.160;11.452;2023-03-01T03:24:18;1.20;99.90
30473;DHT22;17263;48.160;11.452;2023-03-01T03:26:44;1.10;99.90
30473;DHT22;17263;48.160;11.452;2023-03-01T03:29:10;1.10;99.90
30473;DHT22;17263;48.160;11.452;2023-03-01T03:31:36;1.10;99.90
30473;DHT22;17263;48.160;11.452;2023-03-01T03:34:02;1.10;99.90
30473;DHT22;17263;48.160;11.452;2023-03-01T03:36:28;1.10;99.90
30473;DHT22;17263;48.160;11.452;2023-03-01T03:38:54;1.00;99.90
30473;DHT22;17263;48.160;11.452;2023-03-01T03:41:20;1.00;99.90
30473;DHT22;17263;48.160;11.452;2023-03-01T03:43:46;0.90;99.90
30473;DHT22;17263;48.160;11.452;2023-03-01T03:46:13;1.00;99.90
30473;DHT22;17263;48.160;11.452;2023-03-01T03:48:41;0.90;99.90
30473;DHT22;17263;48.160;11.452;2023-03-01T03:51:14;0.90;99.90
30473;DHT22;17263;48.160;11.452;2023-03-01T03:53:41;1.00;99.90
30473;DHT22;17263;48.160;11.452;2023-03-01T03:56:08;0.90;99.90
30473;DHT22;17263;48.160;11.452;2023-03-01T03:58:34;0.90;99.90
30473;DHT22;17263;48.160;11.452;2023-03-01T04:01:00;0.90;99.90
30473;DHT22;17263;48.160;11.452;2023-03-01T04:03:30;0.90;99.90
30473;DHT22;17263;48.160;11.452;2023-03-01T04:05:58;0.90;99.90
30473;DHT22;17263;48.160;11.452;2023-03-01T04:08:25;0.90;99.90
30473;DHT22;17263;48.160;11.452;2023-03-01T04:10:52;0.90;99.90
30473;DHT22;17263;48.160;11.452;2023-03-01T04:13:22;0.90;99.90
30473;DHT22;17263;48.160;11.452;2023-03-01T04:15:54;0.90;99.90
30473;DHT22;17263;48.160;11.452;2023-03-01T04:18:23;0.80;99.90
30473;DHT22;17263;48.160;11.452;2023-03-01T04:20:49;0.80;99.90
30473;DHT22;17263;48.160;11.452;2023-03-01T04:23:19;0.80;99.90
30473;DHT22;17263;48.160;11.452;2023-03-01T04:25:56;0.80;99.90
30473;DHT22;17263;48.160;11.452;2023-03-01T04:28:27;0.80;99.90
30473;DHT22;17263;48.160;11.452;2023-03-01T04:30:55;0.80;99.90
30473;DHT22;17263;48.160;11.452;2023-03-01T04:33:22;0.80;99.90
30473;DHT22;17263;48.160;11.452;2023-03-01T04:35:49;0.70;99.90
30473;DHT22;17263;48.160;11.452;2023-03-01T04:38:19;0.70;99.90
30473;DHT22;17263;48.160;11.452;2023-03-01T04:40:45;0.70;99.90
30473;DHT22;17263;48.160;11.452;2023-03-01T04:43:12;0.70;99.90
30473;DHT22;17263;48.160;11.452;2023-03-01T04:45:41;0.70;99.90
30473;DHT22;17263;48.160;11.452;2023-03-01T04:48:07;0.70;99.90
30473;DHT22;17263;48.160;11.452;2023-03-01T04:50:34;0.70;99.90
30473;DHT22;17263;48.160;11.452;2023-03-01T04:53:01;0.70;99.90
30473;DHT22;17263;48.160;11.452;2023-03-01T04:55:27;0.70;99.90
30473;DHT22;17263;48.160;11.452;2023-03-01T04:57:54;0.60;99.90
30473;DHT22;17263;48.160;11.452;2023-03-01T05:00:21;0.60;99.90
30473;DHT22;17263;48.160;11.452;2023-03-01T05:02:56;0.60;99.90
30473;DHT22;17263;48.160;11.452;2023-03-01T05:05:42;0.50;99.90
30473;DHT22;17263;48.160;11.452;2023-03-01T05:08:10;0.50;99.90
30473;DHT22;17263;48.160;11.452;2023-03-01T05:10:50;0.50;99.90
30473;DHT22;17263;48.160;11.452;2023-03-01T05:13:18;0.40;99.90
30473;DHT22;17263;48.160;11.452;2023-03-01T05:15:54;0.40;99.90
30473;DHT22;17263;48.160;11.452;2023-03-01T05:18:21;0.30;99.90
30473;DHT22;17263;48.160;11.452;2023-03-01T05:21:12;0.30;99.90
30473;DHT22;17263;48.160;11.452;2023-03-01T05:23:38;0.30;99.90
30473;DHT22;17263;48.160;11.452;2023-03-01T05:26:06;0.30;99.90
30473;DHT22;17263;48.160;11.452;2023-03-01T05:28:32;0.30;99.90
30473;DHT22;17263;48.160;11.452;2023-03-01T05:30:58;0.20;99.90
30473;DHT22;17263;48.160;11.452;2023-03-01T05:33:25;0.20;99.90
30473;DHT22;17263;48.160;11.452;2023-03-01T05:35:51;0.20;99.90
30473;DHT22;17263;48.160;11.452;2023-03-01T05:38:19;0.20;99.90
30473;DHT22;17263;48.160;11.452;2023-03-01T05:40:47;0.20;99.90
30473;DHT22;17263;48.160;11.452;2023-03-01T05:43:15;0.10;99.90
30473;DHT22;17263;48.160;11.452;2023-03-01T05:45:41;0.10;99.90
30473;DHT22;17263;48.160;11.452;2023-03-01T05:48:09;0.10;99.90
30473;DHT22;17263;48.160;11.452;2023-03-01T05:50:39;0.00;99.90
30473;DHT22;17263;48.160;11.452;2023-03-01T05:53:14;0.00;99.90
30473;DHT22;17263;48.160;11.452;2023-03-01T05:55:42;0.00;99.90
30473;DHT22;17263;48.160;11.452;2023-03-01T05:58:11;0.00;99.90
30473;DHT22;17263;48.160;11.452;2023-03-01T06:00:37;-0.10;99.90
30473;DHT22;17263;48.160;11.452;2023-03-01T06:03:03;0.00;99.90
30473;DHT22;17263;48.160;11.452;2023-03-01T06:05:29;0.00;99.90
30473;DHT22;17263;48.160;11.452;2023-03-01T06:08:00;0.00;99.90
30473;DHT22;17263;48.160;11.452;2023-03-01T06:10:26;0.00;99.90
30473;DHT22;17263;48.160;11.452;2023-03-01T06:12:52;0.00;99.90
30473;DHT22;17263;48.160;11.452;2023-03-01T06:15:18;0.00;99.90
30473;DHT22;17263;48.160;11.452;2023-03-01T06:17:45;0.00;99.90
30473;DHT22;17263;48.160;11.452;2023-03-01T06:20:17;0.00;99.90
30473;DHT22;17263;48.160;11.452;2023-03-01T06:22:44;0.00;99.90
30473;DHT22;17263;48.160;11.452;2023-03-01T06:25:12;0.00;99.90
30473;DHT22;17263;48.160;11.452;2023-03-01T06:27:39;0.00;99.90
30473;DHT22;17263;48.160;11.452;2023-03-01T06:30:06;0.00;99.90
30473;DHT22;17263;48.160;11.452;2023-03-01T06:32:32;0.00;99.90
30473;DHT22;17263;48.160;11.452;2023-03-01T06:34:58;0.00;99.90
30473;DHT22;17263;48.160;11.452;2023-03-01T06:37:25;0.00;99.90
30473;DHT22;17263;48.160;11.452;2023-03-01T06:39:51;0.00;99.90
30473;DHT22;17263;48.160;11.452;2023-03-01T06:42:17;0.10;99.90
30473;DHT22;17263;48.160;11.452;2023-03-01T06:44:44;0.00;99.90
30473;DHT22;17263;48.160;11.452;2023-03-01T06:47:10;0.10;99.90
30473;DHT22;17263;48.160;11.452;2023-03-01T06:49:36;0.10;99.90
30473;DHT22;17263;48.160;11.452;2023-03-01T06:52:02;0.20;99.90
30473;DHT22;17263;48.160;11.452;2023-03-01T06:54:29;0.20;99.90
30473;DHT22;17263;48.160;11.452;2023-03-01T06:56:55;0.20;99.90
30473;DHT22;17263;48.160;11.452;2023-03-01T06:59:21;0.20;99.90
30473;DHT22;17263;48.160;11.452;2023-03-01T07:01:47;0.20;99.90
30473;DHT22;17263;48.160;11.452;2023-03-01T07:04:13;0.20;99.90
30473;DHT22;17263;48.160;11.452;2023-03-01T07:06:39;0.20;99.90
30473;DHT22;17263;48.160;11.452;2023-03-01T07:09:05;0.10;99.90
30473;DHT22;17263;48.160;11.452;2023-03-01T07:11:31;0.10;99.90
30473;DHT22;17263;48.160;11.452;2023-03-01T07:13:57;0.10;99.90
30473;DHT22;17263;48.160;11.452;2023-03-01T07:16:24;0.20;99.90
30473;DHT22;17263;48.160;11.452;2023-03-01T07:18:50;0.30;99.90
30473;DHT22;17263;48.160;11.452;2023-03-01T07:21:16;0.30;99.90
30473;DHT22;17263;48.160;11.452;2023-03-01T07:23:42;0.30;99.90
30473;DHT22;17263;48.160;11.452;2023-03-01T07:26:08;0.30;99.90
30473;DHT22;17263;48.160;11.452;2023-03-01T07:28:34;0.30;99.90
30473;DHT22;17263;48.160;11.452;2023-03-01T07:31:05;0.40;99.90
30473;DHT22;17263;48.160;11.452;2023-03-01T07:33:31;0.40;99.90
30473;DHT22;17263;48.160;11.452;2023-03-01T07:36:01;0.30;99.90
30473;DHT22;17263;48.160;11.452;2023-03-01T07:38:28;0.30;99.90
30473;DHT22;17263;48.160;11.452;2023-03-01T07:40:58;0.40;99.90
30473;DHT22;17263;48.160;11.452;2023-03-01T07:43:24;0.30;99.90
30473;DHT22;17263;48.160;11.452;2023-03-01T07:45:50;0.30;99.90
30473;DHT22;17263;48.160;11.452;2023-03-01T07:48:17;0.40;99.90
30473;DHT22;17263;48.160;11.452;2023-03-01T07:50:43;0.40;99.90
30473;DHT22;17263;48.160;11.452;2023-03-01T07:53:10;0.50;99.90
30473;DHT22;17263;48.160;11.452;2023-03-01T07:55:37;0.50;99.90
30473;DHT22;17263;48.160;11.452;2023-03-01T07:58:03;0.50;99.90
30473;DHT22;17263;48.160;11.452;2023-03-01T08:00:29;0.60;99.90
30473;DHT22;17263;48.160;11.452;2023-03-01T08:02:59;0.60;99.90
30473;DHT22;17263;48.160;11.452;2023-03-01T08:05:25;0.70;99.90
30473;DHT22;17263;48.160;11.452;2023-03-01T08:07:51;0.70;99.90
30473;DHT22;17263;48.160;11.452;2023-03-01T08:10:17;0.70;99.90
30473;DHT22;17263;48.160;11.452;2023-03-01T08:12:44;0.70;99.90
30473;DHT22;17263;48.160;11.452;2023-03-01T08:15:12;0.70;99.90
30473;DHT22;17263;48.160;11.452;2023-03-01T08:17:38;0.70;99.90
30473;DHT22;17263;48.160;11.452;2023-03-01T08:20:04;0.80;99.90
30473;DHT22;17263;48.160;11.452;2023-03-01T08:22:32;0.90;99.90
30473;DHT22;17263;48.160;11.452;2023-03-01T08:24:58;0.90;99.90
30473;DHT22;17263;48.160;11.452;2023-03-01T08:27:24;0.90;99.90
30473;DHT22;17263;48.160;11.452;2023-03-01T08:29:50;1.00;99.90
30473;DHT22;17263;48.160;11.452;2023-03-01T08:32:16;1.00;99.90
30473;DHT22;17263;48.160;11.452;2023-03-01T08:34:46;0.90;99.90
30473;DHT22;17263;48.160;11.452;2023-03-01T08:37:12;0.90;99.90
30473;DHT22;17263;48.160;11.452;2023-03-01T08:39:38;1.00;99.90
30473;DHT22;17263;48.160;11.452;2023-03-01T08:42:04;1.00;99.90
30473;DHT22;17263;48.160;11.452;2023-03-01T08:44:30;1.10;99.90
30473;DHT22;17263;48.160;11.452;2023-03-01T08:46:56;1.20;99.90
30473;DHT22;17263;48.160;11.452;2023-03-01T08:49:23;1.20;99.90
30473;DHT22;17263;48.160;11.452;2023-03-01T08:51:49;1.30;99.90
30473;DHT22;17263;48.160;11.452;2023-03-01T08:54:18;1.40;99.90
30473;DHT22;17263;48.160;11.452;2023-03-01T08:56:45;1.40;99.90
30473;DHT22;17263;48.160;11.452;2023-03-01T08:59:12;1.50;99.90
30473;DHT22;17263;48.160;11.452;2023-03-01T09:01:38;1.60;99.90
30473;DHT22;17263;48.160;11.452;2023-03-01T09:04:06;1.60;99.90
30473;DHT22;17263;48.160;11.452;2023-03-01T09:06:33;1.70;99.90
30473;DHT22;17263;48.160;11.452;2023-03-01T09:09:00;1.60;99.90
30473;DHT22;17263;48.160;11.452;2023-03-01T09:11:27;1.70;99.90
30473;DHT22;17263;48.160;11.452;2023-03-01T09:13:54;1.60;99.90
30473;DHT22;17263;48.160;11.452;2023-03-01T09:16:22;1.70;99.90
30473;DHT22;17263;48.160;11.452;2023-03-01T09:18:54;1.80;99.90
30473;DHT22;17263;48.160;11.452;2023-03-01T09:21:23;1.80;99.90
30473;DHT22;17263;48.160;11.452;2023-03-01T09:23:49;1.80;99.90
30473;DHT22;17263;48.160;11.452;2023-03-01T09:26:18;1.80;99.90
30473;DHT22;17263;48.160;11.452;2023-03-01T09:28:46;1.90;99.90
30473;DHT22;17263;48.160;11.452;2023-03-01T09:31:14;1.90;99.90
30473;DHT22;17263;48.160;11.452;2023-03-01T09:33:41;2.00;99.90
30473;DHT22;17263;48.160;11.452;2023-03-01T09:36:15;2.00;99.90
30473;DHT22;17263;48.160;11.452;2023-03-01T09:38:41;2.00;99.90
30473;DHT22;17263;48.160;11.452;2023-03-01T09:43:53;2.00;99.90
30473;DHT22;17263;48.160;11.452;2023-03-01T09:46:24;2.00;99.90
30473;DHT22;17263;48.160;11.452;2023-03-01T09:48:52;2.00;99.90
30473;DHT22;17263;48.160;11.452;2023-03-01T09:51:33;2.10;99.90
30473;DHT22;17263;48.160;11.452;2023-03-01T09:54:02;2.10;99.90
30473;DHT22;17263;48.160;11.452;2023-03-01T09:56:40;2.20;99.90
30473;DHT22;17263;48.160;11.452;2023-03-01T10:00:22;2.30;99.90
30473;DHT22;17263;48.160;11.452;2023-03-01T10:02:25;2.30;99.90
30473;DHT22;17263;48.160;11.452;2023-03-01T10:05:03;2.40;99.90
30473;DHT22;17263;48.160;11.452;2023-03-01T10:07:41;2.50;99.90
30473;DHT22;17263;48.160;11.452;2023-03-01T10:10:22;2.50;99.90
30473;DHT22;17263;48.160;11.452;2023-03-01T10:12:49;2.30;99.90
30473;DHT22;17263;48.160;11.452;2023-03-01T10:15:29;2.30;99.90
30473;DHT22;17263;48.160;11.452;2023-03-01T10:18:02;2.40;99.90
30473;DHT22;17263;48.160;11.452;2023-03-01T10:21:02;2.40;99.90
30473;DHT22;17263;48.160;11.452;2023-03-01T10:23:32;2.50;99.90
30473;DHT22;17263;48.160;11.452;2023-03-01T10:26:20;2.60;99.90
30473;DHT22;17263;48.160;11.452;2023-03-01T10:32:04;2.60;99.90
30473;DHT22;17263;48.160;11.452;2023-03-01T10:34:29;2.60;99.90
30473;DHT22;17263;48.160;11.452;2023-03-01T10:37:09;2.70;99.90
30473;DHT22;17263;48.160;11.452;2023-03-01T10:39:35;2.70;99.90
30473;DHT22;17263;48.160;11.452;2023-03-01T10:42:04;2.60;99.90
30473;DHT22;17263;48.160;11.452;2023-03-01T10:44:40;2.60;99.90
30473;DHT22;17263;48.160;11.452;2023-03-01T10:49:55;2.60;99.90
30473;DHT22;17263;48.160;11.452;2023-03-01T10:52:24;2.60;99.90
30473;DHT22;17263;48.160;11.452;2023-03-01T10:55:03;2.50;99.90
30473;DHT22;17263;48.160;11.452;2023-03-01T10:57:31;2.60;99.90
30473;DHT22;17263;48.160;11.452;2023-03-01T11:00:21;2.70;99.90
30473;DHT22;17263;48.160;11.452;2023-03-01T11:05:25;2.90;99.90
30473;DHT22;17263;48.160;11.452;2023-03-01T11:07:56;3.00;99.90
30473;DHT22;17263;48.160;11.452;2023-03-01T11:10:34;3.00;99.90
30473;DHT22;17263;48.160;11.452;2023-03-01T11:13:18;3.10;99.90
30473;DHT22;17263;48.160;11.452;2023-03-01T11:15:59;3.20;99.90
30473;DHT22;17263;48.160;11.452;2023-03-01T11:18:26;3.30;99.90
30473;DHT22;17263;48.160;11.452;2023-03-01T11:20:55;3.40;99.90
30473;DHT22;17263;48.160;11.452;2023-03-01T11:23:22;3.60;99.90
30473;DHT22;17263;48.160;11.452;2023-03-01T11:25:57;3.70;99.90
30473;DHT22;17263;48.160;11.452;2023-03-01T11:28:25;3.70;99.90
30473;DHT22;17263;48.160;11.452;2023-03-01T11:30:58;3.60;99.90
30473;DHT22;17263;48.160;11.452;2023-03-01T11:33:43;3.50;99.90
30473;DHT22;17263;48.160;11.452;2023-03-01T11:36:24;3.50;99.90
30473;DHT22;17263;48.160;11.452;2023-03-01T11:38:53;3.50;99.90
30473;DHT22;17263;48.160;11.452;2023-03-01T11:41:25;3.50;99.90
30473;DHT22;17263;48.160;11.452;2023-03-01T11:43:56;3.50;99.90
30473;DHT22;17263;48.160;11.452;2023-03-01T11:49:12;3.60;99.90
30473;DHT22;17263;48.160;11.452;2023-03-01T11:52:08;3.60;99.90
30473;DHT22;17263;48.160;11.452;2023-03-01T11:57:56;3.70;99.90
30473;DHT22;17263;48.160;11.452;2023-03-01T12:03:37;3.80;99.90
30473;DHT22;17263;48.160;11.452;2023-03-01T12:06:24;3.80;99.90
30473;DHT22;17263;48.160;11.452;2023-03-01T12:09:20;3.80;99.90
30473;DHT22;17263;48.160;11.452;2023-03-01T12:14:44;4.00;99.90
30473;DHT22;17263;48.160;11.452;2023-03-01T12:17:52;4.10;99.90
30473;DHT22;17263;48.160;11.452;2023-03-01T12:50:26;4.70;99.90
30473;DHT22;17263;48.160;11.452;2023-03-01T12:52:56;4.70;99.90
30473;DHT22;17263;48.160;11.452;2023-03-01T12:55:29;4.70;99.90
30473;DHT22;17263;48.160;11.452;2023-03-01T13:00:36;4.80;99.90
30473;DHT22;17263;48.160;11.452;2023-03-01T13:08:42;4.90;99.90
30473;DHT22;17263;48.160;11.452;2023-03-01T13:11:19;5.00;99.90
30473;DHT22;17263;48.160;11.452;2023-03-01T13:13:46;5.00;99.90
30473;DHT22;17263;48.160;11.452;2023-03-01T13:19:13;5.10;99.90
30473;DHT22;17263;48.160;11.452;2023-03-01T13:21:41;5.10;99.90
30473;DHT22;17263;48.160;11.452;2023-03-01T13:27:22;5.10;99.90
30473;DHT22;17263;48.160;11.452;2023-03-01T13:29:59;5.10;99.90
30473;DHT22;17263;48.160;11.452;2023-03-01T13:32:35;5.20;99.90
30473;DHT22;17263;48.160;11.452;2023-03-01T13:40:58;5.30;99.90
30473;DHT22;17263;48.160;11.452;2023-03-01T13:43:47;5.20;99.90
30473;DHT22;17263;48.160;11.452;2023-03-01T13:46:20;5.20;99.90
30473;DHT22;17263;48.160;11.452;2023-03-01T13:48:50;5.20;99.90
30473;DHT22;17263;48.160;11.452;2023-03-01T13:51:30;5.20;99.90
30473;DHT22;17263;48.160;11.452;2023-03-01T13:53:57;5.10;99.90
30473;DHT22;17263;48.160;11.452;2023-03-01T13:56:27;5.20;99.90
30473;DHT22;17263;48.160;11.452;2023-03-01T13:58:59;5.20;99.90
30473;DHT22;17263;48.160;11.452;2023-03-01T14:01:33;5.30;99.90
30473;DHT22;17263;48.160;11.452;2023-03-01T14:04:01;5.30;99.90
30473;DHT22;17263;48.160;11.452;2023-03-01T14:06:32;5.40;99.90
30473;DHT22;17263;48.160;11.452;2023-03-01T14:09:23;5.40;99.90
30473;DHT22;17263;48.160;11.452;2023-03-01T14:12:16;5.40;99.90
30473;DHT22;17263;48.160;11.452;2023-03-01T14:17:52;5.50;99.90
30473;DHT22;17263;48.160;11.452;2023-03-01T14:20:26;5.50;99.90
30473;DHT22;17263;48.160;11.452;2023-03-01T14:22:57;5.60;99.90
30473;DHT22;17263;48.160;11.452;2023-03-01T14:25:30;5.60;99.90
30473;DHT22;17263;48.160;11.452;2023-03-01T14:30:45;5.60;99.90
30473;DHT22;17263;48.160;11.452;2023-03-01T14:33:53;5.60;99.90
30473;DHT22;17263;48.160;11.452;2023-03-01T14:36:13;5.60;99.90
30473;DHT22;17263;48.160;11.452;2023-03-01T14:38:42;5.60;99.90
30473;DHT22;17263;48.160;11.452;2023-03-01T14:41:24;5.60;99.90
30473;DHT22;17263;48.160;11.452;2023-03-01T14:44:00;5.70;99.90
30473;DHT22;17263;48.160;11.452;2023-03-01T14:46:34;5.70;99.90
30473;DHT22;17263;48.160;11.452;2023-03-01T14:49:24;5.60;99.90
30473;DHT22;17263;48.160;11.452;2023-03-01T14:51:52;5.70;99.90
30473;DHT22;17263;48.160;11.452;2023-03-01T14:54:23;5.80;99.90
30473;DHT22;17263;48.160;11.452;2023-03-01T14:56:51;5.80;99.90
30473;DHT22;17263;48.160;11.452;2023-03-01T14:59:22;5.80;99.90
30473;DHT22;17263;48.160;11.452;2023-03-01T15:01:51;5.80;99.90
30473;DHT22;17263;48.160;11.452;2023-03-01T15:04:19;5.80;99.90
30473;DHT22;17263;48.160;11.452;2023-03-01T15:06:49;5.80;99.90
30473;DHT22;17263;48.160;11.452;2023-03-01T15:09:17;5.80;99.90
30473;DHT22;17263;48.160;11.452;2023-03-01T15:11:44;5.80;99.90
30473;DHT22;17263;48.160;11.452;2023-03-01T15:14:42;5.80;99.90
30473;DHT22;17263;48.160;11.452;2023-03-01T15:17:37;5.80;99.90
30473;DHT22;17263;48.160;11.452;2023-03-01T15:20:07;5.80;99.90
30473;DHT22;17263;48.160;11.452;2023-03-01T15:22:45;5.80;99.90
30473;DHT22;17263;48.160;11.452;2023-03-01T15:25:18;5.80;99.90
30473;DHT22;17263;48.160;11.452;2023-03-01T15:27:46;5.80;99.90
30473;DHT22;17263;48.160;11.452;2023-03-01T15:30:21;5.80;99.90
30473;DHT22;17263;48.160;11.452;2023-03-01T15:32:49;5.90;99.90
30473;DHT22;17263;48.160;11.452;2023-03-01T15:35:50;5.90;99.90
30473;DHT22;17263;48.160;11.452;2023-03-01T15:38:50;5.90;99.90
30473;DHT22;17263;48.160;11.452;2023-03-01T15:43:52;5.90;99.90
30473;DHT22;17263;48.160;11.452;2023-03-01T15:46:31;5.90;99.90
30473;DHT22;17263;48.160;11.452;2023-03-01T15:49:04;5.80;99.90
30473;DHT22;17263;48.160;11.452;2023-03-01T15:51:33;5.80;99.90
30473;DHT22;17263;48.160;11.452;2023-03-01T15:54:03;5.80;99.90
30473;DHT22;17263;48.160;11.452;2023-03-01T15:56:30;5.80;99.90
30473;DHT22;17263;48.160;11.452;2023-03-01T15:59:01;5.80;99.90
30473;DHT22;17263;48.160;11.452;2023-03-01T16:01:28;5.80;99.90
30473;DHT22;17263;48.160;11.452;2023-03-01T16:03:54;5.80;99.90
30473;DHT22;17263;48.160;11.452;2023-03-01T16:06:20;5.80;99.90
30473;DHT22;17263;48.160;11.452;2023-03-01T16:08:46;5.70;99.90
30473;DHT22;17263;48.160;11.452;2023-03-01T16:11:16;5.70;99.90
30473;DHT22;17263;48.160;11.452;2023-03-01T16:13:42;5.60;99.90
30473;DHT22;17263;48.160;11.452;2023-03-01T16:16:12;5.50;99.90
30473;DHT22;17263;48.160;11.452;2023-03-01T16:18:45;5.50;99.90
30473;DHT22;17263;48.160;11.452;2023-03-01T16:21:14;5.40;99.90
30473;DHT22;17263;48.160;11.452;2023-03-01T16:23:42;5.40;99.90
30473;DHT22;17263;48.160;11.452;2023-03-01T16:26:09;5.40;99.90
30473;DHT22;17263;48.160;11.452;2023-03-01T16:28:36;5.40;99.90
30473;DHT22;17263;48.160;11.452;2023-03-01T16:31:02;5.50;99.90
30473;DHT22;17263;48.160;11.452;2023-03-01T16:33:28;5.40;99.90
30473;DHT22;17263;48.160;11.452;2023-03-01T16:35:54;5.40;99.90
30473;DHT22;17263;48.160;11.452;2023-03-01T16:38:20;5.40;99.90
30473;DHT22;17263;48.160;11.452;2023-03-01T16:40:48;5.30;99.90
30473;DHT22;17263;48.160;11.452;2023-03-01T16:43:14;5.30;99.90
30473;DHT22;17263;48.160;11.452;2023-03-01T16:45:40;5.30;99.90
30473;DHT22;17263;48.160;11.452;2023-03-01T16:48:10;5.20;99.90
30473;DHT22;17263;48.160;11.452;2023-03-01T16:50:37;5.10;99.90
30473;DHT22;17263;48.160;11.452;2023-03-01T16:53:03;5.00;99.90
30473;DHT22;17263;48.160;11.452;2023-03-01T16:55:29;4.80;99.90
30473;DHT22;17263;48.160;11.452;2023-03-01T16:57:55;4.70;99.90
30473;DHT22;17263;48.160;11.452;2023-03-01T17:00:21;4.50;99.90
30473;DHT22;17263;48.160;11.452;2023-03-01T17:02:48;4.50;99.90
30473;DHT22;17263;48.160;11.452;2023-03-01T17:05:14;4.40;99.90
30473;DHT22;17263;48.160;11.452;2023-03-01T17:07:40;4.30;99.90
30473;DHT22;17263;48.160;11.452;2023-03-01T17:10:09;4.20;99.90
30473;DHT22;17263;48.160;11.452;2023-03-01T17:12:35;4.10;99.90
30473;DHT22;17263;48.160;11.452;2023-03-01T17:15:03;4.00;99.90
30473;DHT22;17263;48.160;11.452;2023-03-01T17:17:29;3.90;99.90
30473;DHT22;17263;48.160;11.452;2023-03-01T17:19:55;3.80;99.90
30473;DHT22;17263;48.160;11.452;2023-03-01T17:22:22;3.80;99.90
30473;DHT22;17263;48.160;11.452;2023-03-01T17:24:48;3.70;99.90